createdAt,value
2018-04-23T00:01:04.476Z,31.27
2018-04-23T00:03:32.583Z,31.10
2018-04-23T00:06:01.065Z,30.96
2018-04-23T00:08:28.571Z,30.91
2018-04-23T00:10:56.466Z,31.29
2018-04-23T00:13:23.971Z,31.61
2018-04-23T00:15:51.483Z,31.83
2018-04-23T00:18:19.352Z,31.65
2018-04-23T00:20:46.888Z,31.90
2018-04-23T00:23:14.902Z,31.83
2018-04-23T00:25:42.447Z,32.37
2018-04-23T00:28:09.952Z,32.40
2018-04-23T00:30:37.453Z,32.96
2018-04-23T00:33:04.984Z,32.82
2018-04-23T00:35:32.487Z,32.99
2018-04-23T00:37:59.983Z,32.89
2018-04-23T00:40:27.531Z,33.22
2018-04-23T00:42:55.039Z,33.10
2018-04-23T00:45:22.544Z,33.00
2018-04-23T00:47:50.255Z,32.95
2018-04-23T00:50:17.768Z,32.88
2018-04-23T00:52:45.271Z,33.25
2018-04-23T00:55:12.816Z,33.39
2018-04-23T00:57:40.332Z,33.67
2018-04-23T01:00:08.808Z,34.15
2018-04-23T01:02:36.539Z,34.34
2018-04-23T01:05:04.049Z,34.37
2018-04-23T01:07:31.551Z,34.30
2018-04-23T01:09:59.529Z,34.68
2018-04-23T01:12:27.031Z,34.99
2018-04-23T01:14:54.994Z,34.91
2018-04-23T01:17:23.360Z,35.02
2018-04-23T01:19:50.875Z,34.91
2018-04-23T01:22:18.375Z,35.42
2018-04-23T01:24:45.915Z,35.84
2018-04-23T01:27:13.411Z,35.67
2018-04-23T01:29:40.915Z,35.73
2018-04-23T01:32:08.588Z,36.10
2018-04-23T01:34:36.099Z,36.26
2018-04-23T01:37:03.595Z,36.46
2018-04-23T01:39:31.140Z,36.64
2018-04-23T01:41:58.643Z,36.72
2018-04-23T01:44:26.143Z,36.72
2018-04-23T01:46:53.836Z,36.97
2018-04-23T01:49:21.338Z,36.79
2018-04-23T01:51:48.843Z,36.24
2018-04-23T01:54:16.407Z,35.81
2018-04-23T01:56:43.919Z,36.19
2018-04-23T01:59:11.439Z,36.06
2018-04-23T02:01:39.240Z,35.64
2018-04-23T02:04:06.757Z,35.69
2018-04-23T02:06:34.260Z,35.38
2018-04-23T02:09:01.808Z,35.68
2018-04-23T02:11:29.323Z,35.64
2018-04-23T02:13:56.835Z,35.48
2018-04-23T02:16:24.886Z,35.61
2018-04-23T02:18:52.387Z,35.39
2018-04-23T02:21:19.894Z,35.63
2018-04-23T02:23:47.443Z,35.53
2018-04-23T02:26:14.948Z,35.75
2018-04-23T02:28:42.448Z,35.78
2018-04-23T02:31:10.217Z,35.61
2018-04-23T02:33:37.721Z,35.89
2018-04-23T02:36:05.224Z,36.69
2018-04-23T02:38:32.783Z,36.74
2018-04-23T02:41:00.293Z,36.46
2018-04-23T02:43:27.803Z,36.34
2018-04-23T02:45:56.657Z,36.38
2018-04-23T02:48:24.168Z,36.70
2018-04-23T02:50:51.676Z,37.12
2018-04-23T02:53:19.426Z,37.66
2018-04-23T02:55:46.931Z,38.18
2018-04-23T02:58:14.444Z,38.41
2018-04-23T03:00:42.167Z,37.86
2018-04-23T03:03:09.918Z,37.62
2018-04-23T03:05:37.422Z,37.67
2018-04-23T03:08:05.155Z,37.99
2018-04-23T03:10:32.655Z,37.97
2018-04-23T03:13:00.155Z,38.22
2018-04-23T03:15:27.697Z,39.17
2018-04-23T03:17:55.210Z,38.73
2018-04-23T03:20:22.722Z,38.59
2018-04-23T03:22:50.408Z,38.12
2018-04-23T03:25:17.907Z,38.10
2018-04-23T03:27:45.414Z,37.99
2018-04-23T03:30:13.068Z,37.94
2018-04-23T03:32:40.582Z,38.33
2018-04-23T03:35:08.085Z,39.03
2018-04-23T03:37:36.059Z,38.35
2018-04-23T03:40:03.643Z,38.90
2018-04-23T03:42:31.143Z,39.00
2018-04-23T03:44:58.683Z,38.78
2018-04-23T03:47:26.191Z,38.71
2018-04-23T03:49:53.703Z,38.69
2018-04-23T03:52:21.515Z,38.24
2018-04-23T03:54:49.926Z,37.96
2018-04-23T03:57:17.434Z,38.51
2018-04-23T03:59:44.969Z,38.71
2018-04-23T04:02:12.475Z,38.59
2018-04-23T04:04:39.974Z,38.09
2018-04-23T04:07:08.130Z,37.89
2018-04-23T04:09:35.635Z,37.68
2018-04-23T04:15:28.846Z,37.98
2018-04-23T04:21:10.503Z,38.80
2018-04-23T04:23:38.154Z,38.88
2018-04-23T04:26:05.657Z,38.63
2018-04-23T04:28:33.172Z,38.19
2018-04-23T04:31:00.740Z,38.19
2018-04-23T04:33:28.255Z,38.38
2018-04-23T04:35:55.757Z,38.79
2018-04-23T04:38:24.098Z,39.28
2018-04-23T04:40:51.603Z,39.55
2018-04-23T04:43:19.111Z,39.27
2018-04-23T04:45:46.968Z,39.45
2018-04-23T04:48:14.468Z,39.50
2018-04-23T04:50:41.996Z,39.36
2018-04-23T04:53:09.531Z,39.26
2018-04-23T04:55:37.040Z,39.64
2018-04-23T04:58:05.005Z,39.51
2018-04-23T05:00:32.535Z,39.54
2018-04-23T05:03:00.043Z,39.16
2018-04-23T05:05:27.688Z,39.08
2018-04-23T05:07:55.243Z,38.95
2018-04-23T05:10:22.755Z,39.42
2018-04-23T05:12:50.269Z,39.18
2018-04-23T05:15:17.978Z,38.96
2018-04-23T05:17:45.572Z,38.77
2018-04-23T05:20:13.083Z,38.59
2018-04-23T05:22:40.875Z,38.76
2018-04-23T05:25:08.378Z,39.13
2018-04-23T05:27:35.883Z,38.64
2018-04-23T05:30:03.756Z,37.79
2018-04-23T05:32:31.259Z,37.75
2018-04-23T05:34:59.307Z,37.96
2018-04-23T05:37:26.962Z,38.07
2018-04-23T05:39:54.469Z,38.64
2018-04-23T05:42:22.042Z,38.68
2018-04-23T05:44:49.728Z,38.69
2018-04-23T05:47:17.233Z,39.02
2018-04-23T05:49:44.772Z,39.10
2018-04-23T05:52:12.326Z,39.00
2018-04-23T05:54:39.838Z,39.15
2018-04-23T05:57:07.346Z,38.89
2018-04-23T05:59:36.017Z,39.45
2018-04-23T06:02:03.519Z,39.86
2018-04-23T06:04:31.015Z,40.19
2018-04-23T06:06:58.564Z,40.09
2018-04-23T06:09:26.098Z,39.27
2018-04-23T06:11:53.599Z,39.47
2018-04-23T06:14:21.715Z,39.13
2018-04-23T06:16:49.191Z,39.35
2018-04-23T06:19:16.703Z,39.59
2018-04-23T06:21:44.235Z,39.42
2018-04-23T06:24:11.749Z,39.56
2018-04-23T06:26:39.251Z,39.70
2018-04-23T06:29:07.011Z,39.17
2018-04-23T06:31:34.523Z,37.89
2018-04-23T06:34:02.030Z,37.80
2018-04-23T06:36:30.645Z,37.02
2018-04-23T06:38:59.127Z,36.90
2018-04-23T06:41:26.628Z,36.32
2018-04-23T06:43:54.314Z,36.13
2018-04-23T06:46:21.847Z,35.90
2018-04-23T06:48:49.352Z,36.01
2018-04-23T06:51:16.907Z,35.69
2018-04-23T06:53:44.423Z,35.14
2018-04-23T06:56:11.927Z,35.74
2018-04-23T06:58:39.679Z,35.51
2018-04-23T07:01:08.115Z,35.03
2018-04-23T07:03:36.563Z,35.00
2018-04-23T07:06:04.215Z,35.29
2018-04-23T07:08:32.747Z,34.58
2018-04-23T07:11:00.278Z,33.69
2018-04-23T07:13:28.337Z,34.52
2018-04-23T07:15:56.000Z,34.24
2018-04-23T07:18:23.554Z,32.80
2018-04-23T07:20:53.991Z,32.27
2018-04-23T07:23:22.999Z,31.61
2018-04-23T07:25:52.287Z,32.34
2018-04-23T07:28:20.026Z,32.77
2018-04-23T07:30:47.544Z,32.80
2018-04-23T07:33:15.567Z,32.41
2018-04-23T07:35:43.332Z,31.28
2018-04-23T07:38:11.758Z,31.66
2018-04-23T07:40:39.531Z,32.64
2018-04-23T07:43:08.450Z,32.93
2018-04-23T07:45:38.111Z,33.30
2018-04-23T07:48:09.226Z,32.77
2018-04-23T07:50:38.809Z,33.52
2018-04-23T07:53:06.577Z,34.09
2018-04-23T07:55:34.133Z,35.09
2018-04-23T07:58:02.034Z,35.42
2018-04-23T08:00:31.531Z,35.95
2018-04-23T08:02:59.046Z,36.00
2018-04-23T08:05:27.961Z,36.26
2018-04-23T08:07:56.578Z,37.02
2018-04-23T08:10:24.870Z,38.45
2018-04-23T08:12:53.695Z,39.44
2018-04-23T08:15:21.340Z,39.85
2018-04-23T08:17:49.023Z,40.54
2018-04-23T08:20:17.425Z,41.67
2018-04-23T08:22:50.004Z,42.94
2018-04-23T08:25:17.650Z,43.39
2018-04-23T08:27:45.429Z,45.16
2018-04-23T08:30:14.010Z,48.59
2018-04-23T08:32:42.478Z,50.33
2018-04-23T08:35:11.794Z,52.75
2018-04-23T08:37:41.435Z,54.27
2018-04-23T08:40:09.988Z,55.59
2018-04-23T08:42:37.531Z,56.07
2018-04-23T08:45:05.961Z,55.47
2018-04-23T08:47:36.062Z,55.06
2018-04-23T08:50:05.347Z,54.81
2018-04-23T08:52:35.769Z,54.92
2018-04-23T08:55:05.005Z,55.46
2018-04-23T08:57:33.238Z,55.73
2018-04-23T09:00:02.025Z,55.69
2018-04-23T09:02:29.544Z,54.91
2018-04-23T09:04:58.569Z,54.33
2018-04-23T09:07:26.209Z,53.56
2018-04-23T09:09:55.454Z,54.60
2018-04-23T09:12:23.214Z,53.41
2018-04-23T09:14:52.611Z,52.26
2018-04-23T09:17:20.194Z,49.92
2018-04-23T09:19:49.095Z,47.18
2018-04-23T09:22:17.422Z,43.60
2018-04-23T09:24:45.041Z,44.82
2018-04-23T09:27:13.995Z,43.35
2018-04-23T09:29:41.656Z,44.88
2018-04-23T09:32:10.177Z,45.16
2018-04-23T09:34:40.139Z,45.54
2018-04-23T09:37:07.673Z,43.69
2018-04-23T09:39:36.606Z,44.66
2018-04-23T09:42:08.568Z,44.12
2018-04-23T09:44:36.140Z,43.82
2018-04-23T09:47:04.576Z,44.72
2018-04-23T09:49:32.340Z,46.15
2018-04-23T09:51:59.903Z,47.05
2018-04-23T09:54:27.664Z,46.16
2018-04-23T09:56:55.174Z,45.87
2018-04-23T09:59:23.224Z,47.15
2018-04-23T10:01:50.958Z,47.00
2018-04-23T10:04:21.227Z,48.56
2018-04-23T10:06:48.867Z,49.82
2018-04-23T10:09:17.349Z,49.66
2018-04-23T10:11:45.832Z,50.24
2018-04-23T10:14:13.337Z,51.36
2018-04-23T10:16:41.766Z,51.88
2018-04-23T10:19:09.277Z,52.10
2018-04-23T10:21:37.295Z,54.04
2018-04-23T10:24:05.057Z,54.04
2018-04-23T10:26:32.573Z,54.12
2018-04-23T10:29:00.111Z,54.06
2018-04-23T10:31:27.881Z,53.93
2018-04-23T10:33:55.383Z,53.73
2018-04-23T10:36:23.369Z,53.92
2018-04-23T10:38:51.019Z,52.95
2018-04-23T10:41:21.051Z,53.30
2018-04-23T10:43:51.373Z,52.60
2018-04-23T10:46:19.088Z,52.69
2018-04-23T10:48:46.799Z,51.98
2018-04-23T10:51:15.383Z,51.27
2018-04-23T10:53:43.077Z,51.01
2018-04-23T10:56:11.013Z,50.78
2018-04-23T10:58:39.809Z,50.12
2018-04-23T11:01:07.362Z,49.89
2018-04-23T11:03:36.736Z,48.78
2018-04-23T11:06:04.605Z,49.31
2018-04-23T11:08:33.519Z,48.13
2018-04-23T11:11:01.266Z,47.88
2018-04-23T11:13:30.788Z,47.80
2018-04-23T11:15:58.344Z,48.58
2018-04-23T11:18:26.420Z,47.87
2018-04-23T11:20:54.573Z,48.07
2018-04-23T11:23:22.501Z,47.67
2018-04-23T11:25:50.440Z,47.70
2018-04-23T11:28:18.407Z,48.94
2018-04-23T11:30:46.397Z,48.39
2018-04-23T11:33:14.129Z,48.78
2018-04-23T11:35:42.456Z,49.04
2018-04-23T11:38:10.478Z,49.08
2018-04-23T11:40:38.263Z,48.52
2018-04-23T11:43:06.322Z,48.33
2018-04-23T11:45:34.283Z,47.92
2018-04-23T11:48:02.238Z,47.28
2018-04-23T11:50:30.256Z,47.70
2018-04-23T11:52:58.151Z,48.59
2018-04-23T11:55:26.058Z,48.37
2018-04-23T11:57:54.436Z,48.09
2018-04-23T12:00:22.188Z,49.69
2018-04-23T12:02:49.810Z,50.31
2018-04-23T12:05:18.359Z,51.80
2018-04-23T12:07:48.483Z,52.45
2018-04-23T12:10:16.125Z,53.15
2018-04-23T12:12:43.989Z,52.93
2018-04-23T12:15:12.266Z,53.98
2018-04-23T12:17:40.132Z,53.52
2018-04-23T12:20:08.101Z,53.76
2018-04-23T12:22:35.934Z,54.39
2018-04-23T12:25:03.834Z,55.33
2018-04-23T12:27:32.213Z,56.34
2018-04-23T12:30:01.843Z,56.07
2018-04-23T12:32:29.892Z,57.23
2018-04-23T12:34:57.885Z,57.04
2018-04-23T12:37:25.728Z,58.33
2018-04-23T12:39:54.212Z,58.59
2018-04-23T12:42:22.382Z,59.09
2018-04-23T12:44:50.350Z,59.44
2018-04-23T12:47:18.344Z,60.39
2018-04-23T12:49:46.185Z,59.64
2018-04-23T12:52:13.945Z,59.37
2018-04-23T12:54:41.820Z,58.58
2018-04-23T12:57:09.684Z,56.88
2018-04-23T12:59:37.641Z,57.28
2018-04-23T13:02:05.827Z,56.78
2018-04-23T13:04:33.423Z,55.90
2018-04-23T13:07:01.560Z,55.74
2018-04-23T13:09:29.529Z,54.64
2018-04-23T13:11:57.397Z,54.92
2018-04-23T13:14:25.261Z,53.64
2018-04-23T13:16:53.232Z,52.22
2018-04-23T13:19:21.303Z,49.93
2018-04-23T13:21:49.178Z,47.83
2018-04-23T13:24:16.833Z,43.92
2018-04-23T13:26:44.527Z,38.83
2018-04-23T13:29:12.262Z,35.37
2018-04-23T13:31:39.875Z,31.03
2018-04-23T13:34:07.785Z,29.89
2018-04-23T13:36:35.432Z,29.71
2018-04-23T13:39:03.415Z,31.44
2018-04-23T13:41:31.592Z,31.20
2018-04-23T13:43:59.362Z,29.93
2018-04-23T13:46:27.210Z,32.41
2018-04-23T13:48:55.497Z,34.01
2018-04-23T13:51:23.253Z,36.59
2018-04-23T13:53:50.993Z,39.81
2018-04-23T13:56:18.841Z,38.68
2018-04-23T13:58:46.553Z,36.30
2018-04-23T14:01:14.317Z,33.98
2018-04-23T14:03:43.105Z,30.21
2018-04-23T14:06:10.687Z,31.37
2018-04-23T14:08:38.447Z,30.49
2018-04-23T14:11:06.705Z,31.53
2018-04-23T14:13:34.374Z,31.72
2018-04-23T14:16:02.235Z,33.96
2018-04-23T14:18:30.515Z,34.37
2018-04-23T14:20:58.240Z,36.07
2018-04-23T14:23:25.880Z,37.81
2018-04-23T14:25:53.673Z,40.76
2018-04-23T14:28:21.338Z,42.68
2018-04-23T14:30:49.044Z,42.67
2018-04-23T14:33:16.860Z,44.38
2018-04-23T14:35:44.615Z,46.52
2018-04-23T14:38:12.531Z,45.86
2018-04-23T14:40:40.931Z,46.61
2018-04-23T14:43:08.655Z,46.66
2018-04-23T14:45:36.334Z,46.60
2018-04-23T14:48:05.026Z,45.63
2018-04-23T14:50:33.494Z,45.47
2018-04-23T14:53:01.533Z,46.89
2018-04-23T14:55:30.658Z,48.94
2018-04-23T14:57:58.734Z,47.94
2018-04-23T15:00:26.959Z,47.93
2018-04-23T15:02:55.078Z,48.02
2018-04-23T15:05:22.930Z,49.70
2018-04-23T15:07:50.708Z,49.50
2018-04-23T15:10:18.568Z,49.76
2018-04-23T15:12:46.443Z,51.61
2018-04-23T15:15:14.546Z,51.92
2018-04-23T15:17:42.481Z,51.61
2018-04-23T15:20:10.809Z,52.17
2018-04-23T15:22:38.688Z,51.76
2018-04-23T15:25:06.536Z,52.48
2018-04-23T15:27:34.983Z,52.70
2018-04-23T15:30:02.872Z,52.36
2018-04-23T15:32:31.115Z,52.34
2018-04-23T15:34:59.091Z,53.51
2018-04-23T15:37:27.873Z,54.70
2018-04-23T15:39:55.910Z,54.25
2018-04-23T15:42:23.808Z,55.03
2018-04-23T15:44:51.879Z,55.26
2018-04-23T15:47:19.779Z,54.43
2018-04-23T15:49:48.032Z,54.12
2018-04-23T15:52:15.887Z,55.28
2018-04-23T15:54:44.579Z,55.77
2018-04-23T15:57:12.531Z,54.60
2018-04-23T15:59:40.819Z,53.86
2018-04-23T16:02:08.788Z,53.45
2018-04-23T16:04:36.555Z,49.53
2018-04-23T16:07:04.409Z,48.67
2018-04-23T16:09:33.003Z,46.92
2018-04-23T16:12:00.973Z,46.42
2018-04-23T16:14:29.351Z,46.43
2018-04-23T16:16:57.532Z,46.66
2018-04-23T16:19:25.522Z,46.74
2018-04-23T16:21:53.425Z,46.39
2018-04-23T16:24:21.626Z,46.53
2018-04-23T16:26:49.609Z,47.12
2018-04-23T16:29:18.188Z,46.77
2018-04-23T16:31:46.259Z,46.99
2018-04-23T16:34:14.173Z,46.72
2018-04-23T16:36:42.200Z,48.27
2018-04-23T16:39:10.374Z,47.60
2018-04-23T16:41:38.212Z,47.09
2018-04-23T16:44:06.181Z,47.31
2018-04-23T16:46:34.382Z,47.05
2018-04-23T16:49:02.556Z,47.57
2018-04-23T16:51:32.030Z,47.18
2018-04-23T16:54:00.198Z,48.32
2018-04-23T16:56:28.204Z,48.28
2018-04-23T16:58:56.277Z,48.02
2018-04-23T17:01:25.064Z,48.54
2018-04-23T17:03:53.752Z,48.73
2018-04-23T17:06:21.619Z,48.09
2018-04-23T17:08:49.794Z,48.05
2018-04-23T17:11:17.721Z,48.80
2018-04-23T17:13:45.630Z,49.21
2018-04-23T17:16:13.696Z,48.60
2018-04-23T17:18:41.911Z,48.60
2018-04-23T17:21:09.756Z,49.34
2018-04-23T17:23:38.322Z,49.22
2018-04-23T17:26:06.392Z,49.12
2018-04-23T17:28:34.339Z,49.29
2018-04-23T17:31:02.534Z,48.99
2018-04-23T17:33:30.401Z,48.62
2018-04-23T17:35:58.280Z,48.79
2018-04-23T17:38:27.260Z,48.73
2018-04-23T17:40:55.162Z,48.33
2018-04-23T17:43:23.536Z,48.82
2018-04-23T17:45:51.755Z,48.03
2018-04-23T17:48:20.367Z,48.42
2018-04-23T17:50:48.437Z,47.66
2018-04-23T17:53:16.201Z,47.66
2018-04-23T17:55:44.068Z,47.69
2018-04-23T17:58:11.940Z,47.58
2018-04-23T18:00:39.903Z,48.66
2018-04-23T18:03:08.179Z,48.33
2018-04-23T18:05:36.451Z,48.34
2018-04-23T18:08:04.495Z,48.67
2018-04-23T18:10:32.189Z,48.29
2018-04-23T18:13:01.183Z,48.30
2018-04-23T18:15:29.218Z,48.40
2018-04-23T18:17:57.121Z,48.75
2018-04-23T18:20:25.776Z,48.76
2018-04-23T18:22:54.188Z,49.08
2018-04-23T18:25:22.256Z,49.50
2018-04-23T18:27:50.077Z,49.70
2018-04-23T18:30:18.298Z,50.20
2018-04-23T18:32:46.266Z,50.35
2018-04-23T18:35:14.133Z,50.30
2018-04-23T18:37:42.071Z,50.74
2018-04-23T18:40:10.070Z,51.24
2018-04-23T18:42:38.264Z,51.79
2018-04-23T18:45:06.579Z,52.17
2018-04-23T18:47:34.886Z,53.21
2018-04-23T18:50:02.732Z,52.82
2018-04-23T18:52:31.145Z,53.73
2018-04-23T18:55:00.749Z,53.56
2018-04-23T18:57:28.618Z,53.22
2018-04-23T18:59:57.715Z,53.41
2018-04-23T19:02:25.542Z,53.67
2018-04-23T19:04:53.549Z,53.78
2018-04-23T19:07:21.900Z,53.91
2018-04-23T19:09:49.795Z,54.17
2018-04-23T19:12:17.763Z,53.32
2018-04-23T19:14:46.064Z,53.85
2018-04-23T19:17:14.417Z,53.58
2018-04-23T19:19:42.287Z,53.19
2018-04-23T19:22:10.255Z,53.62
2018-04-23T19:24:38.120Z,53.70
2018-04-23T19:27:06.293Z,53.13
2018-04-23T19:29:34.365Z,54.27
2018-04-23T19:32:02.398Z,53.86
2018-04-23T19:34:30.305Z,54.71
2018-04-23T19:36:59.055Z,55.80
2018-04-23T19:39:27.884Z,54.92
2018-04-23T19:41:57.076Z,54.92
2018-04-23T19:44:25.481Z,54.98
2018-04-23T19:46:53.440Z,55.12
2018-04-23T19:49:22.815Z,55.24
2018-04-23T19:51:51.157Z,55.17
2018-04-23T19:54:19.708Z,55.23
2018-04-23T19:56:48.269Z,55.60
2018-04-23T19:59:16.341Z,55.55
2018-04-23T20:01:44.209Z,55.92
2018-04-23T20:04:12.074Z,56.26
2018-04-23T20:06:41.005Z,57.35
2018-04-23T20:09:09.070Z,57.94
2018-04-23T20:11:37.016Z,58.36
2018-04-23T20:14:06.105Z,57.72
2018-04-23T20:16:33.967Z,58.01
2018-04-23T20:19:02.038Z,57.88
2018-04-23T20:21:29.801Z,58.06
2018-04-23T20:23:58.344Z,58.05
2018-04-23T20:26:25.535Z,57.65
2018-04-23T20:28:53.502Z,57.80
2018-04-23T20:31:21.371Z,58.24
2018-04-23T20:33:49.150Z,58.40
2018-04-23T20:36:18.538Z,58.25
2018-04-23T20:38:46.918Z,58.22
2018-04-23T20:41:17.000Z,58.71
2018-04-23T20:43:45.517Z,58.43
2018-04-23T20:46:13.559Z,58.54
2018-04-23T20:48:41.455Z,58.89
2018-04-23T20:51:10.243Z,59.17
2018-04-23T20:53:38.931Z,59.22
2018-04-23T20:56:07.783Z,58.77
2018-04-23T20:58:35.995Z,58.50
2018-04-23T21:01:03.892Z,57.93
2018-04-23T21:03:33.215Z,58.11
2018-04-23T21:06:01.540Z,58.61
2018-04-23T21:08:29.410Z,58.73
2018-04-23T21:10:57.259Z,58.43
2018-04-23T21:13:26.481Z,58.72
2018-04-23T21:15:55.273Z,59.89
2018-04-23T21:18:23.058Z,59.59
2018-04-23T21:20:50.958Z,59.18
2018-04-23T21:23:18.615Z,59.68
2018-04-23T21:25:46.421Z,59.99
2018-04-23T21:31:17.605Z,60.36
2018-04-23T21:33:45.275Z,60.79
2018-04-23T21:36:12.952Z,60.61
2018-04-23T21:38:40.975Z,61.07
2018-04-23T21:41:08.722Z,62.64
2018-04-23T21:43:36.428Z,62.03
2018-04-23T21:46:04.263Z,61.85
2018-04-23T21:48:31.876Z,62.48
2018-04-23T21:50:59.509Z,62.04
2018-04-23T21:53:27.506Z,62.05
2018-04-23T21:55:55.041Z,62.35
2018-04-23T21:58:22.650Z,62.66
2018-04-23T22:00:50.529Z,62.96
2018-04-23T22:03:18.033Z,63.24
2018-04-23T22:05:45.611Z,63.07
2018-04-23T22:08:13.397Z,62.79
2018-04-23T22:10:40.933Z,63.53
2018-04-23T22:13:08.479Z,63.13
2018-04-23T22:15:36.040Z,64.25
2018-04-23T22:18:03.570Z,64.44
2018-04-23T22:20:31.269Z,64.26
2018-04-23T22:22:58.858Z,64.29
2018-04-23T22:25:26.428Z,64.53
2018-04-23T22:27:54.069Z,65.08
2018-04-23T22:30:21.668Z,65.78
2018-04-23T22:32:49.197Z,67.38
2018-04-23T22:35:16.716Z,66.68
2018-04-23T22:37:44.490Z,66.66
2018-04-23T22:40:12.029Z,67.37
2018-04-23T22:42:39.558Z,66.50
2018-04-23T22:45:07.387Z,66.15
2018-04-23T22:47:34.909Z,66.58
2018-04-23T22:50:02.440Z,65.34
2018-04-23T22:52:30.203Z,65.27
2018-04-23T22:54:57.720Z,65.03
2018-04-23T22:57:25.249Z,65.28
2018-04-23T22:59:52.999Z,65.58
2018-04-23T23:02:20.532Z,65.63
2018-04-23T23:04:48.048Z,66.15
2018-04-23T23:07:15.695Z,65.30
2018-04-23T23:09:43.221Z,65.57
2018-04-23T23:12:10.744Z,65.63
2018-04-23T23:14:38.675Z,65.86
2018-04-23T23:17:06.193Z,65.64
2018-04-23T23:19:33.705Z,66.39
2018-04-23T23:22:01.281Z,66.79
2018-04-23T23:24:28.800Z,67.10
2018-04-23T23:26:56.311Z,66.94
2018-04-23T23:29:24.125Z,66.90
2018-04-23T23:31:51.644Z,68.32
2018-04-23T23:34:19.164Z,67.01
2018-04-23T23:36:46.729Z,67.80
2018-04-23T23:39:14.247Z,68.48
2018-04-23T23:41:41.760Z,67.17
2018-04-23T23:44:09.321Z,67.20
2018-04-23T23:46:36.847Z,68.39
2018-04-23T23:49:04.375Z,68.32
2018-04-23T23:51:32.012Z,67.98
2018-04-23T23:53:59.592Z,69.12
2018-04-23T23:56:27.121Z,69.16
2018-04-23T23:58:54.968Z,68.78
